Time;durP1;ratioP1;P1;durP2;ratioP2;P2;SDS_P1;SDS_P2;PMS_P1;PMS_P2;Temp;Humidity;BMP_temperature;BMP_pressure;BME280_temperature;BME280_humidity;BME280_pressure;Samples;Min_cycle;Max_cycle;Signal;HPM_P1;HPM_P2
2022/05/20 04:37:25;;;;;;;8.27;7.33;;;20.60;99.90;;;;;;4985432;28;20471;-87
2022/05/20 04:39:52;;;;;;;11.27;7.23;;;20.60;99.90;;;;;;5000089;28;20459;-88
2022/05/20 04:47:50;;;;;;;9.37;6.57;;;20.60;99.90;;;;;;4992410;28;20467;-88
2022/05/20 04:50:17;;;;;;;11.60;6.70;;;20.70;99.90;;;;;;4992595;28;20483;-88
2022/05/20 04:52:46;;;;;;;9.70;5.90;;;20.80;99.90;;;;;;4994850;28;20432;-88
2022/05/20 04:55:12;;;;;;;9.00;6.30;;;20.80;99.90;;;;;;4993200;28;20464;-87
2022/05/20 04:57:46;;;;;;;7.40;6.40;;;20.90;99.90;;;;;;4981522;28;20555;-88
2022/05/20 05:00:17;;;;;;;7.10;5.87;;;20.90;99.90;;;;;;4980759;28;20462;-87
2022/05/20 05:02:45;;;;;;;11.10;6.60;;;20.90;99.90;;;;;;4981676;28;20464;-88
2022/05/20 05:05:15;;;;;;;7.63;5.80;;;20.90;99.90;;;;;;4980314;28;20538;-87
2022/05/20 05:07:47;;;;;;;9.00;6.10;;;21.00;99.90;;;;;;4980091;28;20455;-88
2022/05/20 05:10:16;;;;;;;11.10;6.87;;;21.10;99.90;;;;;;4980418;28;20460;-88
2022/05/20 05:12:44;;;;;;;9.30;6.10;;;21.20;99.90;;;;;;4980573;28;20499;-87
2022/05/20 05:15:14;;;;;;;7.20;5.87;;;21.20;99.90;;;;;;4980310;28;20468;-87
2022/05/20 05:20:28;;;;;;;8.10;6.60;;;21.40;99.90;;;;;;4982792;28;20411;-87
2022/05/20 05:22:58;;;;;;;6.73;5.67;;;21.50;99.90;;;;;;4987222;28;20437;-87
2022/05/20 05:25:28;;;;;;;10.10;6.83;;;21.60;99.90;;;;;;4986547;28;20496;-88
2022/05/20 05:27:58;;;;;;;14.20;6.90;;;21.60;99.90;;;;;;4981310;28;20519;-87
2022/05/20 05:30:30;;;;;;;13.63;6.20;;;21.60;99.90;;;;;;4999887;28;20451;-88
2022/05/20 05:33:00;;;;;;;11.40;6.47;;;21.70;99.90;;;;;;5000665;28;20446;-88
2022/05/20 05:35:42;;;;;;;10.13;6.80;;;21.80;99.90;;;;;;5000384;28;20476;-88
2022/05/20 05:38:13;;;;;;;9.03;6.20;;;21.90;99.90;;;;;;5000982;28;20448;-89
2022/05/20 05:41:08;;;;;;;10.93;6.40;;;21.90;99.90;;;;;;5000805;28;20444;-89
2022/05/20 05:43:38;;;;;;;8.20;6.10;;;22.10;99.90;;;;;;4989238;28;20515;-88
2022/05/20 05:46:08;;;;;;;10.30;6.03;;;22.10;99.90;;;;;;4995790;28;20457;-89
2022/05/20 05:48:38;;;;;;;7.80;5.43;;;22.20;99.90;;;;;;4995310;28;20452;-88
2022/05/20 05:51:12;;;;;;;9.37;6.07;;;22.30;99.90;;;;;;4986861;28;20440;-87
2022/05/20 05:53:41;;;;;;;7.80;6.70;;;22.40;99.90;;;;;;5000094;28;20444;-87
2022/05/20 05:56:09;;;;;;;6.90;5.70;;;22.40;99.90;;;;;;5000028;28;20475;-85
2022/05/20 05:58:37;;;;;;;7.20;5.73;;;22.50;99.90;;;;;;4998359;28;20456;-88
2022/05/20 06:01:07;;;;;;;9.43;6.17;;;22.50;99.90;;;;;;4996874;28;20468;-87
2022/05/20 06:03:34;;;;;;;7.90;6.40;;;22.50;99.90;;;;;;4994769;28;20472;-89
2022/05/20 06:06:02;;;;;;;7.30;6.10;;;22.60;99.90;;;;;;4988841;28;20468;-88
2022/05/20 06:08:29;;;;;;;11.23;6.10;;;22.60;99.90;;;;;;4983191;28;20466;-89
2022/05/20 06:10:57;;;;;;;8.30;5.30;;;22.70;99.90;;;;;;4992413;28;20560;-87
2022/05/20 06:13:26;;;;;;;9.37;6.17;;;22.70;99.90;;;;;;4991248;28;20523;-88
2022/05/20 06:15:55;;;;;;;8.10;6.10;;;22.70;99.90;;;;;;4982593;28;20508;-87
2022/05/20 06:18:23;;;;;;;6.93;5.67;;;22.90;99.90;;;;;;4981433;28;20459;-88
2022/05/20 06:20:50;;;;;;;9.33;5.63;;;23.00;99.90;;;;;;4980791;28;20551;-87
2022/05/20 06:23:17;;;;;;;7.60;5.90;;;23.10;99.90;;;;;;4982189;28;20471;-88
2022/05/20 06:25:45;;;;;;;9.80;6.60;;;23.10;99.90;;;;;;4983857;28;20476;-88
2022/05/20 06:28:18;;;;;;;13.17;6.40;;;23.30;99.90;;;;;;4982405;28;20484;-88
2022/05/20 06:30:48;;;;;;;7.97;5.80;;;23.40;99.90;;;;;;4987162;28;20507;-87
2022/05/20 06:33:17;;;;;;;6.20;5.00;;;23.50;99.90;;;;;;4981996;28;20444;-87
2022/05/20 06:41:15;;;;;;;6.93;5.00;;;23.70;99.90;;;;;;4981517;28;20455;-89
2022/05/20 06:43:44;;;;;;;8.27;5.77;;;23.80;99.90;;;;;;4979822;28;20491;-89
2022/05/20 06:46:12;;;;;;;8.03;5.33;;;23.80;99.90;;;;;;4981760;28;20514;-87
2022/05/20 06:48:47;;;;;;;11.50;5.40;;;23.90;99.90;;;;;;4984973;28;20441;-88
2022/05/20 06:51:18;;;;;;;6.83;5.23;;;24.00;99.90;;;;;;4980728;28;20917;-91
2022/05/20 06:53:45;;;;;;;7.73;5.60;;;24.00;99.90;;;;;;4979899;28;20452;-88
2022/05/20 06:56:13;;;;;;;9.13;5.47;;;24.10;99.90;;;;;;4979740;28;20475;-88
2022/05/20 06:58:41;;;;;;;6.73;5.00;;;24.10;99.90;;;;;;4982120;28;20456;-90
2022/05/20 07:01:09;;;;;;;8.43;5.83;;;24.20;99.90;;;;;;4978727;28;20452;-90
2022/05/20 07:03:37;;;;;;;6.47;5.10;;;24.30;99.90;;;;;;4981394;28;20475;-89
2022/05/20 07:06:05;;;;;;;8.00;5.90;;;24.50;99.90;;;;;;4989997;28;20476;-88
2022/05/20 07:08:34;;;;;;;10.80;5.10;;;24.60;99.90;;;;;;4989183;28;20933;-88
2022/05/20 07:11:02;;;;;;;8.27;5.67;;;24.70;99.90;;;;;;4986535;28;20487;-88
2022/05/20 07:13:30;;;;;;;6.30;5.40;;;24.90;99.90;;;;;;4984805;28;20488;-88
2022/05/20 07:15:57;;;;;;;7.87;6.27;;;24.90;99.90;;;;;;4980776;28;20476;-88
2022/05/20 07:18:27;;;;;;;10.37;5.20;;;24.90;99.90;;;;;;4980070;28;20452;-88
2022/05/20 07:20:54;;;;;;;7.20;5.40;;;24.90;99.90;;;;;;4983316;28;20522;-88
2022/05/20 07:23:24;;;;;;;8.10;5.33;;;25.00;99.90;;;;;;4981953;28;20460;-89
2022/05/20 07:25:51;;;;;;;6.70;5.50;;;25.00;99.90;;;;;;4981765;28;20586;-87
2022/05/20 07:28:25;;;;;;;15.83;6.30;;;25.10;99.90;;;;;;4984025;28;20487;-88
2022/05/20 07:30:53;;;;;;;10.00;5.63;;;25.20;99.90;;;;;;4981287;28;20531;-89
2022/05/20 07:33:20;;;;;;;6.33;5.60;;;25.30;99.90;;;;;;4980503;28;20464;-88
2022/05/20 07:35:49;;;;;;;7.63;6.03;;;25.50;99.90;;;;;;4979691;28;20484;-88
2022/05/20 07:38:22;;;;;;;8.67;5.03;;;25.60;99.90;;;;;;4981085;28;20543;-89
2022/05/20 07:40:50;;;;;;;7.53;5.23;;;25.70;99.90;;;;;;4998071;28;20525;-89
2022/05/20 07:43:27;;;;;;;6.97;5.73;;;25.70;99.90;;;;;;4988243;28;20543;-88
2022/05/20 07:46:02;;;;;;;6.60;5.87;;;25.80;99.90;;;;;;4996453;28;20486;-89
2022/05/20 07:48:32;;;;;;;7.50;6.10;;;25.90;99.90;;;;;;4984133;28;20468;-89
2022/05/20 07:51:04;;;;;;;7.97;6.00;;;26.00;99.90;;;;;;4980313;28;20547;-89
2022/05/20 07:53:42;;;;;;;10.27;5.80;;;26.20;99.90;;;;;;4979700;28;20913;-88
2022/05/20 07:56:18;;;;;;;7.67;5.80;;;26.10;99.90;;;;;;4981449;28;20499;-89
2022/05/20 07:58:51;;;;;;;15.87;6.23;;;26.30;99.70;;;;;;4979512;28;20412;-88
2022/05/20 08:01:28;;;;;;;9.47;5.40;;;26.30;99.50;;;;;;4994209;28;20511;-89
2022/05/20 08:06:33;;;;;;;7.20;5.47;;;26.50;99.30;;;;;;5060474;22;20495;-88
2022/05/20 08:09:06;;;;;;;7.67;5.70;;;26.60;98.70;;;;;;5002662;28;20476;-88
2022/05/20 08:11:41;;;;;;;10.80;6.40;;;26.60;99.00;;;;;;4988468;28;20445;-89
2022/05/20 08:14:17;;;;;;;9.30;5.57;;;26.70;98.00;;;;;;4989845;28;20440;-88
2022/05/20 08:16:57;;;;;;;10.83;5.50;;;26.70;97.90;;;;;;4994923;28;20514;-88
2022/05/20 08:19:26;;;;;;;7.83;5.30;;;26.80;97.40;;;;;;4985893;28;20475;-89
2022/05/20 08:22:04;;;;;;;6.90;5.73;;;26.90;97.30;;;;;;4986301;28;20460;-87
2022/05/20 08:24:43;;;;;;;6.03;5.27;;;27.00;96.90;;;;;;4985458;28;20503;-89
2022/05/20 08:27:13;;;;;;;10.53;6.17;;;27.00;96.60;;;;;;4984881;28;20633;-89
2022/05/20 08:29:59;;;;;;;7.57;5.27;;;27.10;95.70;;;;;;4985921;28;20444;-88
2022/05/20 08:32:34;;;;;;;7.63;5.70;;;27.10;95.40;;;;;;4984782;28;20452;-89
2022/05/20 08:35:07;;;;;;;8.80;5.60;;;27.20;95.60;;;;;;4985502;28;20460;-90
2022/05/20 08:37:58;;;;;;;11.00;6.70;;;27.20;95.90;;;;;;4986027;28;20456;-89
2022/05/20 08:40:37;;;;;;;9.23;5.60;;;27.30;95.70;;;;;;4980431;28;20463;-88
2022/05/20 08:43:06;;;;;;;7.93;6.00;;;27.40;95.40;;;;;;4997995;28;20448;-87
2022/05/20 08:46:00;;;;;;;9.80;5.20;;;27.30;94.90;;;;;;5000998;28;20507;-87
2022/05/20 08:48:36;;;;;;;6.93;5.53;;;27.40;95.00;;;;;;4998291;28;20451;-87
2022/05/20 08:54:51;;;;;;;8.40;5.90;;;27.40;95.10;;;;;;5001283;28;20427;-87
2022/05/20 08:57:33;;;;;;;8.40;6.43;;;27.50;95.10;;;;;;5004081;28;20480;-87
2022/05/20 09:00:15;;;;;;;10.20;5.87;;;27.70;95.30;;;;;;5003717;28;20435;-88
2022/05/20 09:02:42;;;;;;;12.17;6.57;;;27.70;94.60;;;;;;5002553;28;20460;-87
2022/05/20 09:05:24;;;;;;;9.07;6.00;;;27.90;94.50;;;;;;5000682;28;20499;-87
2022/05/20 09:08:03;;;;;;;10.00;6.00;;;28.00;92.60;;;;;;4997965;28;20472;-88
2022/05/20 09:10:39;;;;;;;7.43;5.60;;;28.10;91.90;;;;;;4994775;28;20480;-89
2022/05/20 09:13:10;;;;;;;8.40;6.10;;;28.10;91.50;;;;;;4995171;28;20506;-88
2022/05/20 09:15:46;;;;;;;11.10;6.70;;;28.10;91.20;;;;;;4994064;28;20483;-87
2022/05/20 09:18:39;;;;;;;8.70;6.30;;;28.10;91.00;;;;;;4999581;28;20444;-89
2022/05/20 09:21:41;;;;;;;8.30;5.83;;;28.20;91.20;;;;;;4996237;28;20452;-91
2022/05/20 09:24:38;;;;;;;13.60;5.90;;;28.40;90.90;;;;;;4966009;28;20463;-91
2022/05/20 09:27:12;;;;;;;8.47;6.07;;;28.40;90.50;;;;;;4982952;28;20519;-88
2022/05/20 09:29:43;;;;;;;9.10;5.73;;;28.50;90.50;;;;;;4983479;28;20484;-88
2022/05/20 09:35:12;;;;;;;7.90;5.83;;;28.50;89.40;;;;;;4993791;28;20448;-90
2022/05/20 09:37:39;;;;;;;9.60;6.47;;;28.50;89.10;;;;;;5000924;28;20425;-88
2022/05/20 09:40:24;;;;;;;7.53;5.80;;;28.50;89.10;;;;;;5000898;28;20436;-90
2022/05/20 09:43:02;;;;;;;10.13;5.80;;;28.50;90.00;;;;;;4997875;28;20487;-88
2022/05/20 09:45:38;;;;;;;8.50;6.40;;;28.60;89.10;;;;;;4994040;28;20529;-88
2022/05/20 09:48:12;;;;;;;8.47;6.30;;;28.60;88.40;;;;;;4990010;28;20444;-88
2022/05/20 09:51:02;;;;;;;10.97;6.13;;;28.70;87.40;;;;;;4984697;28;20485;-88
2022/05/20 09:53:42;;;;;;;11.33;6.23;;;28.70;87.70;;;;;;4983129;28;20460;-88
2022/05/20 09:56:53;;;;;;;10.17;5.67;;;28.70;87.20;;;;;;4985917;28;20490;-89
2022/05/20 09:59:40;;;;;;;14.67;6.60;;;28.70;87.30;;;;;;4988376;28;20464;-88
2022/05/20 10:02:23;;;;;;;8.50;6.73;;;28.70;87.50;;;;;;4984752;28;20460;-88
2022/05/20 10:08:38;;;;;;;10.80;6.90;;;29.00;87.20;;;;;;4981554;28;20451;-89
2022/05/20 10:11:25;;;;;;;9.60;6.00;;;29.10;85.90;;;;;;4983050;28;20490;-88
2022/05/20 10:14:05;;;;;;;8.60;6.27;;;29.10;84.30;;;;;;4985768;28;20964;-89
2022/05/20 10:16:56;;;;;;;8.63;6.20;;;29.10;84.40;;;;;;4998215;28;20464;-89
2022/05/20 10:22:48;;;;;;;10.70;6.07;;;29.30;85.60;;;;;;4996591;28;20436;-89
2022/05/20 10:25:36;;;;;;;8.77;6.07;;;29.40;84.00;;;;;;4986815;28;20579;-89
2022/05/20 10:34:36;;;;;;;9.00;6.37;;;29.50;78.60;;;;;;4999752;28;20424;-90
2022/05/20 10:37:19;;;;;;;6.80;5.50;;;29.60;77.70;;;;;;4998541;28;20551;-89
2022/05/20 10:40:38;;;;;;;9.50;5.60;;;29.70;75.60;;;;;;4992285;28;20515;-89
2022/05/20 10:48:34;;;;;;;8.53;5.77;;;29.80;74.80;;;;;;4983856;28;20460;-89
2022/05/20 10:49:34;;;;;;;9.73;5.87;;;30.10;69.30;;;;;;4984011;28;20443;-88
2022/05/20 10:52:16;;;;;;;9.73;5.20;;;30.10;68.90;;;;;;4984962;28;20444;-88
2022/05/20 10:54:59;;;;;;;11.93;5.80;;;30.10;68.20;;;;;;4994450;28;20428;-88
2022/05/20 10:57:48;;;;;;;8.83;5.23;;;30.10;67.90;;;;;;4984681;28;20448;-88
2022/05/20 11:00:20;;;;;;;10.10;5.20;;;30.10;67.90;;;;;;4990607;28;20452;-88
2022/05/20 11:03:21;;;;;;;7.33;5.07;;;30.20;67.10;;;;;;4986410;28;20783;-87
2022/05/20 11:06:18;;;;;;;7.03;5.00;;;30.20;66.70;;;;;;4983043;28;20497;-88
2022/05/20 11:09:00;;;;;;;8.13;5.70;;;30.30;66.10;;;;;;4982031;28;20477;-89
2022/05/20 11:11:46;;;;;;;10.23;5.57;;;30.20;66.60;;;;;;4981789;28;20421;-89
2022/05/20 11:14:44;;;;;;;8.33;5.33;;;30.10;67.10;;;;;;4982242;28;20448;-87
2022/05/20 11:17:42;;;;;;;8.10;5.13;;;30.30;67.60;;;;;;4990349;28;20476;-90
2022/05/20 11:20:28;;;;;;;12.17;6.93;;;30.30;66.70;;;;;;4984299;28;20487;-89
2022/05/20 11:44:16;;;;;;;7.63;5.43;;;31.20;63.00;;;;;;5100267;28;20435;-88
2022/05/20 11:47:01;;;;;;;7.60;4.60;;;31.10;61.10;;;;;;5101977;28;20467;-88
2022/05/20 11:49:41;;;;;;;10.17;5.10;;;30.70;62.40;;;;;;5114851;28;20462;-89
2022/05/20 11:52:38;;;;;;;10.43;6.03;;;30.60;63.10;;;;;;5110937;28;20490;-89
2022/05/20 11:55:11;;;;;;;8.73;5.33;;;30.80;63.00;;;;;;5100726;28;20489;-88
2022/05/20 11:57:44;;;;;;;7.43;6.03;;;30.80;62.80;;;;;;5100000;28;20485;-87
2022/05/20 12:00:16;;;;;;;9.87;5.60;;;30.80;63.00;;;;;;5099096;28;20416;-89
2022/05/20 12:03:17;;;;;;;7.87;5.40;;;30.90;63.50;;;;;;5111245;28;20440;-88
2022/05/20 12:05:50;;;;;;;9.20;5.73;;;31.10;62.60;;;;;;5115221;28;20462;-88
2022/05/20 12:08:58;;;;;;;7.40;5.10;;;31.10;62.00;;;;;;5114968;28;20525;-88
2022/05/20 12:11:31;;;;;;;8.33;4.90;;;31.20;62.00;;;;;;5115266;28;20446;-89
2022/05/20 12:14:06;;;;;;;10.90;5.47;;;31.20;60.80;;;;;;5114079;28;20456;-90
2022/05/20 12:16:35;;;;;;;10.00;5.97;;;31.20;60.90;;;;;;5105506;28;20471;-89
2022/05/20 12:24:40;;;;;;;7.67;5.60;;;31.10;60.50;;;;;;5101679;28;20476;-89
2022/05/20 12:27:35;;;;;;;22.30;5.63;;;31.10;60.00;;;;;;5108486;28;20524;-89
2022/05/20 12:30:26;;;;;;;7.63;5.10;;;31.00;60.50;;;;;;5109087;28;20878;-90
2022/05/20 12:32:54;;;;;;;8.00;5.20;;;31.00;60.70;;;;;;5099298;28;20431;-90
2022/05/20 12:35:33;;;;;;;11.03;5.87;;;31.00;61.60;;;;;;5097497;28;20472;-89
2022/05/20 12:38:28;;;;;;;10.00;5.43;;;31.10;60.70;;;;;;5100693;28;20447;-90
2022/05/20 12:41:17;;;;;;;9.10;6.00;;;31.20;59.90;;;;;;5086902;28;20452;-89
2022/05/20 12:43:56;;;;;;;9.00;5.30;;;31.20;60.20;;;;;;5086280;28;20445;-89
2022/05/20 12:47:04;;;;;;;8.37;5.47;;;31.20;58.50;;;;;;5086925;28;20467;-90
2022/05/20 12:49:35;;;;;;;6.50;4.57;;;31.10;58.50;;;;;;5083828;28;20472;-88
2022/05/20 12:52:21;;;;;;;8.13;4.77;;;31.20;57.40;;;;;;5083901;28;20452;-90
2022/05/20 12:54:52;;;;;;;6.90;4.60;;;31.20;56.80;;;;;;5083117;28;20792;-89
2022/05/20 12:57:25;;;;;;;8.20;4.80;;;31.30;56.70;;;;;;5082677;28;20521;-89
2022/05/20 12:59:58;;;;;;;8.20;4.60;;;31.40;56.30;;;;;;5087690;28;20482;-88
2022/05/20 13:02:31;;;;;;;8.67;5.30;;;31.40;56.10;;;;;;5085173;28;20485;-87
2022/05/20 13:05:03;;;;;;;10.23;4.77;;;31.60;56.20;;;;;;5083161;28;20560;-88
2022/05/20 13:07:33;;;;;;;8.37;4.93;;;31.60;56.20;;;;;;5081192;28;20464;-89
2022/05/20 13:10:26;;;;;;;8.10;4.70;;;31.70;54.80;;;;;;5081726;28;20475;-88
2022/05/20 13:13:01;;;;;;;9.30;4.40;;;31.70;54.10;;;;;;5086669;28;20457;-88
2022/05/20 13:15:42;;;;;;;9.43;5.20;;;31.70;53.70;;;;;;5091711;28;20490;-88
2022/05/20 13:26:37;;;;;;;7.00;4.70;;;31.80;52.90;;;;;;5074822;23;20510;-89
2022/05/20 13:56:26;;;;;;;12.83;6.00;;;32.80;51.70;;;;;;4958066;29;20446;-89
2022/05/20 13:59:05;;;;;;;10.20;5.03;;;33.00;51.40;;;;;;4981244;28;20475;-90
2022/05/20 14:02:20;;;;;;;10.20;6.00;;;33.10;51.10;;;;;;5005498;28;20440;-89
2022/05/20 14:05:11;;;;;;;;;;;;;;;;;;;;;
2022/05/20 14:08:22;;;;;;;7.37;5.17;;;33.20;50.90;;;;;;4998885;28;20532;-89
2022/05/20 14:14:02;;;;;;;10.40;5.33;;;33.70;49.40;;;;;;4958178;28;20965;-89
2022/05/20 14:17:12;;;;;;;;;;;;;;;;;;;;;
2022/05/20 14:19:58;;;;;;;9.27;4.83;;;34.10;48.90;;;;;;4997917;28;20504;-88
2022/05/20 14:22:38;;;;;;;8.27;5.40;;;34.10;48.40;;;;;;4999073;28;20476;-88
2022/05/20 14:25:31;;;;;;;9.37;5.83;;;34.00;48.40;;;;;;5000325;28;20472;-89
2022/05/20 14:28:17;;;;;;;7.83;4.30;;;33.80;48.20;;;;;;5014684;28;20469;-88
2022/05/20 14:31:01;;;;;;;11.13;5.40;;;33.70;48.10;;;;;;5002865;28;20487;-88
2022/05/20 14:33:48;;;;;;;9.73;5.10;;;33.40;48.40;;;;;;4999921;28;20548;-88
2022/05/20 14:36:21;;;;;;;6.67;4.37;;;33.00;49.40;;;;;;4997889;28;20440;-88
2022/05/20 14:39:04;;;;;;;7.80;5.00;;;32.80;49.90;;;;;;5000655;28;20471;-89
2022/05/20 14:41:41;;;;;;;8.13;5.00;;;32.70;49.90;;;;;;5006842;28;20468;-89
2022/05/20 14:44:39;;;;;;;8.17;5.60;;;32.70;50.00;;;;;;4999742;28;20457;-89
2022/05/20 14:47:23;;;;;;;11.33;6.30;;;32.50;52.50;;;;;;4998321;28;20481;-89
2022/05/20 14:50:13;;;;;;;8.80;6.50;;;32.00;57.50;;;;;;4998880;28;20464;-89
2022/05/20 14:55:55;;;;;;;10.53;6.60;;;31.10;61.30;;;;;;5006301;28;20440;-89
2022/05/20 15:04:39;;;;;;;12.20;7.33;;;30.60;64.50;;;;;;4991605;28;20460;-89
2022/05/20 15:07:22;;;;;;;10.80;6.40;;;30.80;64.50;;;;;;4999933;28;20853;-88
2022/05/20 15:10:25;;;;;;;11.40;6.40;;;31.50;63.00;;;;;;5000721;28;20481;-89
2022/05/20 15:19:00;;;;;;;10.40;5.97;;;32.00;60.70;;;;;;4996351;28;20435;-88
2022/05/20 15:21:38;;;;;;;11.13;6.57;;;31.90;60.80;;;;;;4999347;28;20432;-89
2022/05/20 15:24:14;;;;;;;8.60;5.50;;;32.10;60.40;;;;;;4998273;28;20863;-90
2022/05/20 15:27:13;;;;;;;;;;;;;;;;;;;;;
2022/05/20 15:58:12;;;;;;;12.70;6.30;;;29.40;71.20;;;;;;1971512;23;20517;-89
2022/05/20 16:04:20;;;;;;;10.87;6.10;;;29.10;73.80;;;;;;5007873;28;20442;-89
2022/05/20 16:07:36;;;;;;;;;;;;;;;;;;;;;
2022/05/20 16:17:17;;;;;;;11.10;5.70;;;28.90;75.10;;;;;;5029825;28;20482;-89
2022/05/20 16:20:38;;;;;;;9.80;5.90;;;28.90;74.70;;;;;;4945314;29;20453;-89
2022/05/20 16:35:17;;;;;;;7.70;5.93;;;28.40;77.50;;;;;;4932727;29;20473;-89
2022/05/20 16:38:13;;;;;;;10.73;6.90;;;28.40;78.30;;;;;;4943090;29;20482;-89
2022/05/20 16:47:46;;;;;;;11.13;7.30;;;28.50;79.70;;;;;;4949382;28;21046;-90
2022/05/20 16:50:48;;;;;;;12.23;7.50;;;28.70;79.30;;;;;;4968709;28;20521;-88
2022/05/20 17:11:29;;;;;;;8.97;5.70;;;29.10;78.80;;;;;;4853088;29;20503;-89
2022/05/20 17:14:30;;;;;;;11.47;6.30;;;29.10;78.30;;;;;;4923121;29;20478;-89
2022/05/20 17:17:08;;;;;;;9.70;6.80;;;29.00;78.90;;;;;;4952815;28;20502;-89
2022/05/20 17:40:26;;;;;;;14.30;5.73;;;29.40;81.00;;;;;;4832892;29;20456;-90
2022/05/20 18:48:10;;;;;;;12.27;8.83;;;27.70;90.10;;;;;;4176127;26;20494;-90
2022/05/20 18:50:40;;;;;;;14.07;9.90;;;27.60;90.50;;;;;;4999642;28;20486;-88
2022/05/20 18:53:11;;;;;;;13.50;9.37;;;27.60;91.20;;;;;;4999922;28;20519;-87
2022/05/20 18:55:38;;;;;;;18.00;8.53;;;27.60;90.80;;;;;;4999946;28;20437;-88
2022/05/20 18:58:08;;;;;;;11.03;7.40;;;27.70;87.60;;;;;;4973476;23;20593;-88
2022/05/20 19:00:36;;;;;;;14.53;7.37;;;27.70;84.30;;;;;;4959595;28;20477;-88
2022/05/20 19:05:56;;;;;;;11.50;8.07;;;27.70;82.70;;;;;;4960415;29;20497;-87
2022/05/20 19:08:24;;;;;;;17.83;7.87;;;27.80;81.80;;;;;;4961003;28;20473;-88
2022/05/20 19:10:52;;;;;;;12.23;6.10;;;27.70;81.70;;;;;;4962041;28;20481;-88
2022/05/20 19:13:19;;;;;;;16.33;9.10;;;27.80;76.90;;;;;;4967383;28;20437;-88
2022/05/20 19:15:47;;;;;;;13.33;7.83;;;27.90;77.60;;;;;;4962871;28;20463;-88
2022/05/20 19:18:15;;;;;;;14.23;6.20;;;27.80;78.10;;;;;;4960200;28;20469;-88
2022/05/20 19:20:47;;;;;;;15.83;9.27;;;27.80;76.30;;;;;;4958699;28;20451;-87
2022/05/20 19:23:14;;;;;;;22.00;7.90;;;27.90;77.10;;;;;;4959409;29;20496;-88
2022/05/20 19:31:18;;;;;;;14.40;6.90;;;27.70;75.10;;;;;;4980128;28;20477;-90
2022/05/20 19:33:47;;;;;;;14.33;6.50;;;27.70;73.50;;;;;;4985618;28;20468;-89
2022/05/20 19:42:07;;;;;;;13.00;5.60;;;27.60;73.50;;;;;;4967546;28;20547;-90
2022/05/20 19:53:57;;;;;;;12.87;4.40;;;27.30;77.40;;;;;;4956461;28;20464;-89
2022/05/20 19:56:31;;;;;;;12.63;5.00;;;26.90;81.20;;;;;;4980323;28;20513;-89
2022/05/20 20:02:07;;;;;;;11.40;4.90;;;26.50;86.50;;;;;;4965704;29;20936;-90
2022/05/20 20:07:49;;;;;;;10.80;5.20;;;26.00;89.50;;;;;;4964597;28;20492;-89
2022/05/20 20:10:46;;;;;;;11.57;4.47;;;25.80;90.70;;;;;;4967375;28;20485;-88
2022/05/20 20:13:23;;;;;;;8.90;4.57;;;25.60;91.30;;;;;;4966268;29;20468;-88
2022/05/20 20:16:11;;;;;;;9.07;5.17;;;25.70;91.90;;;;;;4965529;28;20595;-89
2022/05/20 20:18:49;;;;;;;15.40;4.57;;;25.50;92.90;;;;;;4957647;28;20453;-89
2022/05/20 20:30:11;;;;;;;9.00;6.50;;;25.20;95.20;;;;;;4964711;28;20462;-88
2022/05/20 20:33:03;;;;;;;12.77;6.80;;;25.00;96.10;;;;;;4974070;28;20441;-89
2022/05/20 20:35:54;;;;;;;11.70;6.20;;;24.80;97.40;;;;;;4972383;28;20465;-89
2022/05/20 20:38:36;;;;;;;10.17;5.63;;;24.70;98.60;;;;;;4968984;28;20457;-89
2022/05/20 20:41:09;;;;;;;9.20;5.77;;;24.70;99.90;;;;;;4965362;28;20418;-88
2022/05/20 20:43:42;;;;;;;9.03;6.37;;;24.50;99.90;;;;;;4963879;28;20417;-89
2022/05/20 20:46:25;;;;;;;8.90;5.70;;;24.50;99.90;;;;;;4965897;28;20548;-89
2022/05/20 20:49:20;;;;;;;12.90;7.13;;;24.30;99.90;;;;;;4965388;28;20473;-89
2022/05/20 21:02:28;;;;;;;;;;;;;;;;;;;;;
2022/05/20 21:23:04;;;;;;;10.20;8.57;;;22.20;99.90;;;;;;4908771;29;20513;-89
2022/05/20 23:00:53;;;;;;;8.17;6.50;;;21.10;99.90;;;;;;4941209;29;20438;-90
2022/05/20 23:03:59;;;;;;;12.87;6.10;;;21.00;99.90;;;;;;4960380;29;20446;-88
2022/05/20 23:07:00;;;;;;;7.57;5.50;;;21.00;99.90;;;;;;4909222;29;20523;-89
2022/05/20 23:13:36;;;;;;;6.80;5.87;;;20.90;99.90;;;;;;4931330;29;20950;-90
2022/05/20 23:16:58;;;;;;;;;;;;;;;;;;;;;
2022/05/20 23:44:01;;;;;;;9.73;6.33;;;20.50;99.90;;;;;;4861136;29;20472;-89
2022/05/20 23:50:30;;;;;;;9.60;6.40;;;20.40;99.90;;;;;;4887687;29;20460;-88
2022/05/20 23:59:33;;;;;;;6.77;5.10;;;20.20;99.90;;;;;;4883706;29;20456;-91
